Airfield :
LOGIN :

Register | Disclaimer

   EN    FR    IT 

 










Legend :    VFR   Marginal VFR   IFR   Intensive IFR   Very Intensive IFR
Visi :
Ceiling :
>= 8 km
>= 3000ft
5 to 8 km
1000 to 3000 ft
1500m to 5 km
500 to 1000 ft
800 to 1500m
200 to 500 ft
< 800m
< 200 ft
Symbols :   Thunderstorms  Fog  Heavy snow  Heavy precipitations  Wind > 20 kt
SIGMETs :     Misc.  Thunderstorms  Icing  Turbulence  Mountain Waves  Volcanic Ashes






- Airport Elevation : 11 ft
- IATA code : SXL


EISG - Sligo

CURRENT METAR :
  • 251630Z 22013KT 5000 -RA SCT017 BKN041 OVC050 09/09 Q0984

EXPIRED METARs :
  • 251600Z 22010KT 180V240 5000 -RA SCT019 SCT035 BKN050 09/09 Q0984
  • 251530Z 21009G19KT 160V230 7000 RA SCT015 SCT036 BKN042 09/09 Q0983
  • 251500Z 21011G21KT 170V230 9999 FEW041 SCT055 10/08 Q0983
  • 251430Z 22012KT 7000 FEW047 SCT060 11/07 Q0983
  • 251400Z 22016KT 8000 FEW014 SCT025 11/08 Q0983

TAF TAF EISG
Valid from the 25 at 15:00 until the 26 at 00:00 UTC


251400Z 2515/2524 21013KT 9999 FEW015 SCT030
TEMPO 2515/2521 22015G26KT
TEMPO 2515/2524 4000 SHRA SCT012 SCT020CB
PROB30
TEMPO 2515/2524 3000 SHRAGS BKN012
BECMG 2521/2523 28020G33KT



MET'MAP, your aeronautical weather chart ! - Copyright ORBIFLY December 2007 - Disclaimer

ORBIFLY MET'MAP TEAM :

Programming & Development : Alexandra Zaïnal
Concept & original design : Baudouin d'Aumeries
Assistance for programming : Marc-Olivier Méhu
Technical & hardware support : Manuel Goepfert

Contact : metmap@orbifly.com




SOURCES & CREDITS :

   NOAA